createdAt,value
2023-03-01T00:00:04.753Z,0.00
2023-03-01T00:01:04.930Z,0.00
2023-03-01T00:02:05.147Z,0.00
2023-03-01T00:03:05.353Z,0.00
2023-03-01T00:04:05.474Z,0.00
2023-03-01T00:05:05.639Z,0.00
2023-03-01T00:06:05.838Z,0.00
2023-03-01T00:07:06.010Z,0.00
2023-03-01T00:08:06.198Z,0.00
2023-03-01T00:09:06.350Z,0.00
2023-03-01T00:10:06.527Z,0.00
2023-03-01T00:11:06.764Z,0.00
2023-03-01T00:12:06.888Z,0.00
2023-03-01T00:13:07.085Z,0.00
2023-03-01T00:14:07.227Z,0.00
2023-03-01T00:15:07.408Z,0.00
2023-03-01T00:16:07.591Z,0.00
2023-03-01T00:17:07.784Z,0.00
2023-03-01T00:18:07.968Z,0.00
2023-03-01T00:19:08.116Z,0.00
2023-03-01T00:20:08.297Z,0.00
2023-03-01T00:21:08.474Z,0.00
2023-03-01T00:22:08.657Z,0.00
2023-03-01T00:23:08.865Z,0.00
2023-03-01T00:24:09.022Z,0.00
2023-03-01T00:25:09.207Z,0.00
2023-03-01T00:26:09.369Z,0.00
2023-03-01T00:27:09.537Z,0.00
2023-03-01T00:28:09.749Z,0.00
2023-03-01T00:29:09.897Z,0.00
2023-03-01T00:30:10.094Z,0.00
2023-03-01T00:31:10.364Z,0.00
2023-03-01T00:32:10.489Z,0.00
2023-03-01T00:33:10.624Z,0.00
2023-03-01T00:34:10.797Z,0.00
2023-03-01T00:35:10.958Z,0.00
2023-03-01T00:36:11.138Z,0.00
2023-03-01T00:37:11.326Z,0.00
2023-03-01T00:38:11.527Z,0.00
2023-03-01T00:39:11.672Z,0.00
2023-03-01T00:40:11.857Z,0.00
2023-03-01T00:41:12.031Z,0.00
2023-03-01T00:42:12.217Z,0.00
2023-03-01T00:43:12.410Z,0.00
2023-03-01T00:44:12.555Z,0.00
2023-03-01T00:45:12.736Z,0.00
2023-03-01T00:46:12.966Z,0.00
2023-03-01T00:47:13.088Z,0.00
2023-03-01T00:48:13.284Z,0.00
2023-03-01T00:49:13.434Z,0.00
2023-03-01T00:50:13.609Z,0.00
2023-03-01T00:51:13.790Z,0.00
2023-03-01T00:52:13.997Z,0.00
2023-03-01T00:53:14.137Z,0.00
2023-03-01T00:54:14.328Z,0.00
2023-03-01T00:55:14.497Z,0.00
2023-03-01T00:56:14.703Z,0.00
2023-03-01T00:57:14.893Z,0.00
2023-03-01T00:58:15.027Z,0.00
2023-03-01T00:59:15.239Z,0.00
2023-03-01T01:00:15.368Z,0.00
2023-03-01T01:01:15.572Z,0.00
2023-03-01T01:02:15.755Z,0.00
2023-03-01T01:03:15.897Z,0.00
2023-03-01T01:04:16.097Z,0.00
2023-03-01T01:05:16.255Z,0.00
2023-03-01T01:06:16.455Z,0.00
2023-03-01T01:07:16.618Z,0.00
2023-03-01T01:08:16.804Z,0.00
2023-03-01T01:09:16.999Z,0.00
2023-03-01T01:10:17.179Z,0.00
2023-03-01T01:11:17.372Z,0.00
2023-03-01T01:12:17.531Z,0.00
2023-03-01T01:13:17.700Z,0.00
2023-03-01T01:14:17.895Z,0.00
2023-03-01T01:15:18.040Z,0.00
2023-03-01T01:16:18.226Z,0.00
2023-03-01T01:17:18.403Z,0.00
2023-03-01T01:18:18.608Z,0.00
2023-03-01T01:19:18.787Z,0.00
2023-03-01T01:20:18.951Z,0.00
2023-03-01T01:21:19.135Z,0.00
2023-03-01T01:22:19.311Z,0.00
2023-03-01T01:23:19.483Z,0.00
2023-03-01T01:24:19.692Z,0.00
2023-03-01T01:25:19.840Z,0.00
2023-03-01T01:26:20.045Z,0.00
2023-03-01T01:27:20.209Z,0.00
2023-03-01T01:28:20.391Z,0.00
2023-03-01T01:29:20.572Z,0.00
2023-03-01T01:30:20.721Z,0.00
2023-03-01T01:31:20.942Z,0.00
2023-03-01T01:32:21.155Z,0.00
2023-03-01T01:33:21.268Z,0.00
2023-03-01T01:34:21.478Z,0.00
2023-03-01T01:35:21.655Z,0.00
2023-03-01T01:36:21.807Z,0.00
2023-03-01T01:37:21.983Z,0.00
2023-03-01T01:38:22.158Z,0.00
2023-03-01T01:39:22.346Z,0.00
2023-03-01T01:40:22.497Z,0.00
2023-03-01T01:41:22.697Z,0.00
2023-03-01T01:42:22.847Z,0.00
2023-03-01T01:43:23.021Z,0.00
2023-03-01T01:44:23.236Z,0.00
2023-03-01T01:45:23.351Z,0.00
2023-03-01T01:46:23.558Z,0.00
2023-03-01T01:47:23.723Z,0.00
2023-03-01T01:48:23.907Z,0.00
2023-03-01T01:49:24.096Z,0.00
2023-03-01T01:50:24.275Z,0.00
2023-03-01T01:51:24.453Z,0.00
2023-03-01T01:52:24.649Z,0.00
2023-03-01T01:53:24.816Z,0.00
2023-03-01T01:54:25.028Z,0.00
2023-03-01T01:55:25.180Z,0.00
2023-03-01T01:56:25.321Z,0.00
2023-03-01T01:57:25.504Z,0.00
2023-03-01T01:58:25.673Z,0.00
2023-03-01T01:59:25.872Z,0.00
2023-03-01T02:00:26.051Z,0.00
2023-03-01T02:01:26.222Z,0.00
2023-03-01T02:02:26.554Z,0.00
2023-03-01T02:03:26.709Z,0.00
2023-03-01T02:04:26.803Z,0.00
2023-03-01T02:05:26.942Z,0.00
2023-03-01T02:06:27.122Z,0.00
2023-03-01T02:07:27.301Z,0.00
2023-03-01T02:08:27.495Z,0.00
2023-03-01T02:09:27.660Z,0.00
2023-03-01T02:10:27.834Z,0.00
2023-03-01T02:11:28.012Z,0.00
2023-03-01T02:12:28.189Z,0.00
2023-03-01T02:13:28.360Z,0.00
2023-03-01T02:14:28.550Z,0.00
2023-03-01T02:15:28.740Z,0.00
2023-03-01T02:16:29.488Z,0.00
2023-03-01T02:17:29.080Z,0.00
2023-03-01T02:18:29.259Z,0.00
2023-03-01T02:19:29.445Z,0.00
2023-03-01T02:20:29.603Z,0.00
2023-03-01T02:21:29.804Z,0.00
2023-03-01T02:22:30.045Z,0.00
2023-03-01T02:23:30.172Z,0.00
2023-03-01T02:24:30.360Z,0.00
2023-03-01T02:25:30.533Z,0.00
2023-03-01T02:26:31.065Z,0.00
2023-03-01T02:27:30.879Z,0.00
2023-03-01T02:28:31.048Z,0.00
2023-03-01T02:29:31.249Z,0.00
2023-03-01T02:30:31.410Z,0.00
2023-03-01T02:31:31.614Z,0.00
2023-03-01T02:32:31.762Z,0.00
2023-03-01T02:33:31.937Z,0.00
2023-03-01T02:34:32.121Z,0.00
2023-03-01T02:35:32.328Z,0.00
2023-03-01T02:36:32.904Z,0.00
2023-03-01T02:37:32.649Z,0.00
2023-03-01T02:38:32.817Z,0.00
2023-03-01T02:39:33.027Z,0.00
2023-03-01T02:40:33.179Z,0.00
2023-03-01T02:41:33.360Z,0.00
2023-03-01T02:42:33.536Z,0.00
2023-03-01T02:43:33.740Z,0.00
2023-03-01T02:44:33.925Z,0.00
2023-03-01T02:45:34.097Z,0.00
2023-03-01T02:46:34.562Z,0.00
2023-03-01T02:47:34.464Z,0.00
2023-03-01T02:48:34.637Z,0.00
2023-03-01T02:49:34.847Z,0.00
2023-03-01T02:50:34.998Z,0.00
2023-03-01T02:51:35.175Z,0.00
2023-03-01T02:52:35.359Z,0.00
2023-03-01T02:53:35.542Z,0.00
2023-03-01T02:54:35.736Z,0.00
2023-03-01T02:55:35.877Z,0.00
2023-03-01T02:56:36.066Z,0.00
2023-03-01T02:57:36.248Z,0.00
2023-03-01T02:58:36.425Z,0.00
2023-03-01T02:59:36.615Z,0.00
2023-03-01T03:00:36.838Z,0.00
2023-03-01T03:01:36.955Z,0.00
2023-03-01T03:02:37.366Z,0.00
2023-03-01T03:03:37.322Z,0.00
2023-03-01T03:04:37.483Z,0.00
2023-03-01T03:05:37.663Z,0.00
2023-03-01T03:06:37.833Z,0.00
2023-03-01T03:07:38.021Z,0.00
2023-03-01T03:08:38.242Z,0.00
2023-03-01T03:09:38.402Z,0.00
2023-03-01T03:10:38.544Z,0.00
2023-03-01T03:11:38.746Z,0.00
2023-03-01T03:12:38.913Z,0.00
2023-03-01T03:13:39.104Z,0.00
2023-03-01T03:14:39.303Z,0.00
2023-03-01T03:15:39.472Z,0.00
2023-03-01T03:16:39.692Z,0.00
2023-03-01T03:17:39.850Z,0.00
2023-03-01T03:18:40.032Z,0.00
2023-03-01T03:19:40.223Z,0.00
2023-03-01T03:20:40.351Z,0.00
2023-03-01T03:21:40.531Z,0.00
2023-03-01T03:22:40.711Z,0.00
2023-03-01T03:23:40.911Z,0.00
2023-03-01T03:24:41.097Z,0.00
2023-03-01T03:25:41.307Z,0.00
2023-03-01T03:26:41.446Z,0.00
2023-03-01T03:27:41.637Z,0.00
2023-03-01T03:28:41.806Z,0.00
2023-03-01T03:29:42.002Z,0.00
2023-03-01T03:30:42.149Z,0.00
2023-03-01T03:31:42.391Z,0.00
2023-03-01T03:32:42.530Z,0.00
2023-03-01T03:33:42.697Z,0.00
2023-03-01T03:34:42.888Z,0.00
2023-03-01T03:35:43.064Z,0.00
2023-03-01T03:36:43.206Z,0.00
2023-03-01T03:37:43.390Z,0.00
2023-03-01T03:38:43.569Z,0.00
2023-03-01T03:39:43.767Z,0.00
2023-03-01T03:40:43.916Z,0.00
2023-03-01T03:41:44.087Z,0.00
2023-03-01T03:42:44.256Z,0.00
2023-03-01T03:43:44.444Z,0.00
2023-03-01T03:44:44.631Z,0.00
2023-03-01T03:45:44.873Z,0.00
2023-03-01T03:46:44.993Z,0.00
2023-03-01T03:47:45.171Z,0.00
2023-03-01T03:48:45.454Z,0.00
2023-03-01T03:49:45.523Z,0.00
2023-03-01T03:50:45.668Z,0.00
2023-03-01T03:51:45.845Z,0.00
2023-03-01T03:52:46.026Z,0.00
2023-03-01T03:53:46.200Z,0.00
2023-03-01T03:54:46.393Z,0.00
2023-03-01T03:55:46.563Z,0.00
2023-03-01T03:56:46.750Z,0.00
2023-03-01T03:57:46.932Z,0.00
2023-03-01T03:58:47.104Z,0.00
2023-03-01T03:59:47.300Z,0.00
2023-03-01T04:00:47.442Z,0.00
2023-03-01T04:01:47.644Z,0.00
2023-03-01T04:02:47.794Z,0.00
2023-03-01T04:03:47.949Z,0.00
2023-03-01T04:04:48.152Z,0.00
2023-03-01T04:05:48.303Z,0.00
2023-03-01T04:06:48.482Z,0.00
2023-03-01T04:07:48.660Z,0.00
2023-03-01T04:08:48.842Z,0.00
2023-03-01T04:09:49.047Z,0.00
2023-03-01T04:10:49.199Z,0.00
2023-03-01T04:11:49.373Z,0.00
2023-03-01T04:12:49.559Z,0.00
2023-03-01T04:13:49.768Z,0.00
2023-03-01T04:14:49.938Z,0.00
2023-03-01T04:15:50.082Z,0.00
2023-03-01T04:16:50.302Z,0.00
2023-03-01T04:17:50.432Z,0.00
2023-03-01T04:18:50.609Z,0.00
2023-03-01T04:19:50.803Z,0.00
2023-03-01T04:20:50.949Z,0.00
2023-03-01T04:21:51.130Z,0.00
2023-03-01T04:22:51.310Z,0.00
2023-03-01T04:23:51.498Z,0.00
2023-03-01T04:24:51.689Z,0.00
2023-03-01T04:25:51.848Z,0.00
2023-03-01T04:26:52.005Z,0.00
2023-03-01T04:27:52.181Z,0.00
2023-03-01T04:28:52.348Z,0.00
2023-03-01T04:29:52.538Z,0.00
2023-03-01T04:30:52.691Z,0.00
2023-03-01T04:31:52.967Z,0.00
2023-03-01T04:32:53.027Z,0.00
2023-03-01T04:33:53.231Z,0.00
2023-03-01T04:34:53.408Z,0.00
2023-03-01T04:35:53.641Z,0.00
2023-03-01T04:36:53.845Z,0.00
2023-03-01T04:37:53.922Z,0.00
2023-03-01T04:38:54.104Z,0.00
2023-03-01T04:39:54.294Z,0.00
2023-03-01T04:40:54.435Z,0.00
2023-03-01T04:41:54.623Z,0.00
2023-03-01T04:42:54.796Z,0.00
2023-03-01T04:43:54.987Z,0.00
2023-03-01T04:44:55.177Z,0.00
2023-03-01T04:45:55.400Z,0.00
2023-03-01T04:46:55.486Z,0.00
2023-03-01T04:47:55.673Z,0.00
2023-03-01T04:48:55.854Z,0.00
2023-03-01T04:49:56.044Z,0.00
2023-03-01T04:50:56.186Z,0.00
2023-03-01T04:51:56.372Z,0.00
2023-03-01T04:52:56.545Z,0.00
2023-03-01T04:53:56.729Z,0.00
2023-03-01T04:54:56.923Z,0.00
2023-03-01T04:55:57.104Z,0.00
2023-03-01T04:56:57.282Z,0.00
2023-03-01T04:57:57.464Z,0.00
2023-03-01T04:58:57.638Z,0.00
2023-03-01T04:59:57.825Z,0.00
2023-03-01T05:00:57.992Z,0.00
2023-03-01T05:01:58.166Z,0.00
2023-03-01T05:02:58.425Z,0.00
2023-03-01T05:03:58.541Z,0.00
2023-03-01T05:04:58.706Z,0.00
2023-03-01T05:05:58.850Z,0.00
2023-03-01T05:06:59.030Z,0.00
2023-03-01T05:07:59.212Z,0.00
2023-03-01T05:08:59.402Z,0.00
2023-03-01T05:09:59.602Z,0.00
2023-03-01T05:10:59.744Z,0.00
2023-03-01T05:11:59.934Z,0.00
2023-03-01T05:13:00.109Z,0.00
2023-03-01T05:14:00.293Z,0.00
2023-03-01T05:15:00.488Z,0.00
2023-03-01T05:16:00.693Z,0.00
2023-03-01T05:17:00.844Z,0.00
2023-03-01T05:18:01.043Z,0.00
2023-03-01T05:19:01.171Z,0.00
2023-03-01T05:20:01.373Z,0.00
2023-03-01T05:21:01.528Z,0.00
2023-03-01T05:22:01.739Z,0.00
2023-03-01T05:23:01.859Z,0.00
2023-03-01T05:24:02.031Z,4.00
2023-03-01T05:25:02.266Z,4.00
2023-03-01T05:26:02.409Z,4.00
2023-03-01T05:27:02.600Z,0.00
2023-03-01T05:28:02.769Z,4.00
2023-03-01T05:29:02.949Z,4.00
2023-03-01T05:30:03.170Z,4.00
2023-03-01T05:31:03.354Z,8.00
2023-03-01T05:32:03.534Z,8.00
2023-03-01T05:33:03.651Z,8.00
2023-03-01T05:34:03.856Z,12.00
2023-03-01T05:35:04.019Z,12.00
2023-03-01T05:36:04.273Z,16.00
2023-03-01T05:37:04.381Z,20.00
2023-03-01T05:38:04.548Z,24.00
2023-03-01T05:39:04.718Z,24.00
2023-03-01T05:40:04.934Z,28.00
2023-03-01T05:41:05.068Z,36.00
2023-03-01T05:42:05.254Z,44.00
2023-03-01T05:43:05.406Z,48.00
2023-03-01T05:44:05.578Z,56.00
2023-03-01T05:45:05.758Z,64.00
2023-03-01T05:46:05.977Z,72.00
2023-03-01T05:47:06.096Z,80.00
2023-03-01T05:48:06.252Z,92.00
2023-03-01T05:49:06.425Z,108.00
2023-03-01T05:50:06.635Z,116.00
2023-03-01T05:51:06.787Z,132.00
2023-03-01T05:52:06.989Z,148.00
2023-03-01T05:53:07.139Z,164.00
2023-03-01T05:54:07.327Z,184.00
2023-03-01T05:55:07.536Z,204.00
2023-03-01T05:56:07.704Z,224.00
2023-03-01T05:57:07.897Z,248.00
2023-03-01T05:58:08.075Z,272.00
2023-03-01T05:59:08.255Z,300.00
2023-03-01T06:00:08.486Z,324.00
2023-03-01T06:01:08.628Z,356.00
2023-03-01T06:02:08.816Z,380.00
2023-03-01T06:03:08.976Z,412.00
2023-03-01T06:04:09.251Z,444.00
2023-03-01T06:05:09.418Z,476.00
2023-03-01T06:06:09.506Z,508.00
2023-03-01T06:07:09.666Z,544.00
2023-03-01T06:08:09.873Z,576.00
2023-03-01T06:09:10.036Z,612.00
2023-03-01T06:10:10.240Z,652.00
2023-03-01T06:11:10.394Z,696.00
2023-03-01T06:12:11.587Z,748.00
2023-03-01T06:13:10.712Z,796.00
2023-03-01T06:14:10.906Z,848.00
2023-03-01T06:15:11.128Z,896.00
2023-03-01T06:16:11.281Z,952.00
2023-03-01T06:17:11.399Z,1004.00
2023-03-01T06:18:11.614Z,1056.00
2023-03-01T06:19:11.741Z,1096.00
2023-03-01T06:20:11.925Z,1160.00
2023-03-01T06:21:12.063Z,1208.00
2023-03-01T06:22:12.242Z,1264.00
2023-03-01T06:23:12.414Z,1316.00
2023-03-01T06:24:12.596Z,1368.00
2023-03-01T06:25:12.785Z,1420.00
2023-03-01T06:26:12.933Z,1484.00
2023-03-01T06:27:13.104Z,1540.00
2023-03-01T06:28:13.273Z,1592.00
2023-03-01T06:29:13.458Z,1652.00
2023-03-01T06:30:13.649Z,1728.00
2023-03-01T06:31:13.865Z,1820.00
2023-03-01T06:32:14.027Z,1920.00
2023-03-01T06:33:14.142Z,2004.00
2023-03-01T06:34:14.312Z,2108.00
2023-03-01T06:35:14.511Z,2188.00
2023-03-01T06:36:14.643Z,2300.00
2023-03-01T06:37:14.830Z,2372.00
2023-03-01T06:38:14.993Z,2412.00
2023-03-01T06:39:15.169Z,2444.00
2023-03-01T06:40:15.375Z,2504.00
2023-03-01T06:41:15.520Z,2520.00
2023-03-01T06:42:15.727Z,2476.00
2023-03-01T06:43:15.871Z,2388.00
2023-03-01T06:44:16.051Z,2284.00
2023-03-01T06:45:16.252Z,2208.00
2023-03-01T06:46:16.444Z,2248.00
2023-03-01T06:47:16.573Z,2312.00
2023-03-01T06:48:16.777Z,2336.00
2023-03-01T06:49:16.910Z,2380.00
2023-03-01T06:50:17.142Z,2424.00
2023-03-01T06:51:17.260Z,2528.00
2023-03-01T06:52:17.442Z,2568.00
2023-03-01T06:53:17.633Z,2604.00
2023-03-01T06:54:17.802Z,2556.00
2023-03-01T06:55:18.008Z,2544.00
2023-03-01T06:56:18.147Z,2728.00
2023-03-01T06:57:18.340Z,2984.00
2023-03-01T06:58:18.495Z,2860.00
2023-03-01T06:59:18.672Z,2728.00
2023-03-01T07:00:18.872Z,2752.00
2023-03-01T07:01:19.069Z,3016.00
2023-03-01T07:02:19.193Z,3352.00
2023-03-01T07:03:19.365Z,3240.00
2023-03-01T07:04:19.534Z,3120.00
2023-03-01T07:05:19.771Z,3148.00
2023-03-01T07:06:19.909Z,3036.00
2023-03-01T07:07:20.086Z,2952.00
2023-03-01T07:08:20.253Z,3048.00
2023-03-01T07:09:20.422Z,3448.00
2023-03-01T07:10:20.618Z,3872.00
2023-03-01T07:11:20.791Z,3972.00
2023-03-01T07:12:20.964Z,4116.00
2023-03-01T07:13:21.139Z,4708.00
2023-03-01T07:14:21.314Z,5144.00
2023-03-01T07:15:21.506Z,5068.00
2023-03-01T07:16:21.693Z,4576.00
2023-03-01T07:17:21.860Z,4124.00
2023-03-01T07:18:22.004Z,4096.00
2023-03-01T07:19:22.172Z,4296.00
2023-03-01T07:20:22.360Z,4540.00
2023-03-01T07:21:22.533Z,4832.00
2023-03-01T07:22:22.707Z,4952.00
2023-03-01T07:23:22.915Z,4836.00
2023-03-01T07:24:23.053Z,4924.00
2023-03-01T07:25:23.257Z,4828.00
2023-03-01T07:26:25.224Z,4640.00
2023-03-01T07:27:23.580Z,4744.00
2023-03-01T07:28:23.751Z,4864.00
2023-03-01T07:29:23.929Z,5164.00
2023-03-01T07:30:24.121Z,5260.00
2023-03-01T07:31:24.260Z,4928.00
2023-03-01T07:32:24.501Z,4728.00
2023-03-01T07:33:24.670Z,4716.00
2023-03-01T07:34:24.773Z,4796.00
2023-03-01T07:35:24.986Z,4960.00
2023-03-01T07:36:25.130Z,5624.00
2023-03-01T07:37:25.319Z,6312.00
2023-03-01T07:38:25.478Z,6480.00
2023-03-01T07:39:25.661Z,6588.00
2023-03-01T07:40:25.840Z,7112.00
2023-03-01T07:41:26.012Z,7808.00
2023-03-01T07:42:26.181Z,8064.00
2023-03-01T07:43:26.358Z,8016.00
2023-03-01T07:44:26.529Z,7892.00
2023-03-01T07:45:26.784Z,7664.00
2023-03-01T07:46:26.869Z,6656.00
2023-03-01T07:47:27.041Z,5068.00
2023-03-01T07:48:27.222Z,4212.00
2023-03-01T07:49:27.394Z,4812.00
2023-03-01T07:50:27.588Z,6100.00
2023-03-01T07:51:27.738Z,7020.00
2023-03-01T07:52:27.906Z,7300.00
2023-03-01T07:53:28.086Z,7228.00
2023-03-01T07:54:28.259Z,6844.00
2023-03-01T07:55:28.463Z,6152.00
2023-03-01T07:56:28.793Z,5940.00
2023-03-01T07:57:28.776Z,6708.00
2023-03-01T07:58:28.947Z,6796.00
2023-03-01T07:59:29.127Z,6584.00
2023-03-01T08:00:29.330Z,6740.00
2023-03-01T08:01:29.514Z,7028.00
2023-03-01T08:02:29.627Z,7356.00
2023-03-01T08:03:29.817Z,7280.00
2023-03-01T08:04:30.004Z,6808.00
2023-03-01T08:05:30.211Z,6636.00
2023-03-01T08:06:30.628Z,6944.00
2023-03-01T08:07:30.534Z,7496.00
2023-03-01T08:08:30.710Z,7944.00
2023-03-01T08:09:30.883Z,8692.00
2023-03-01T08:10:31.106Z,8928.00
2023-03-01T08:11:31.314Z,9476.00
2023-03-01T08:12:31.416Z,9524.00
2023-03-01T08:13:31.602Z,9492.00
2023-03-01T08:14:31.754Z,9020.00
2023-03-01T08:15:31.951Z,9144.00
2023-03-01T08:16:32.464Z,9488.00
2023-03-01T08:17:32.282Z,9624.00
2023-03-01T08:18:32.461Z,9668.00
2023-03-01T08:19:32.649Z,9432.00
2023-03-01T08:20:32.830Z,9184.00
2023-03-01T08:21:32.981Z,9044.00
2023-03-01T08:22:33.148Z,8716.00
2023-03-01T08:23:33.399Z,8732.00
2023-03-01T08:24:33.544Z,9264.00
2023-03-01T08:25:33.710Z,9888.00
2023-03-01T08:26:33.880Z,10332.00
2023-03-01T08:27:34.085Z,10640.00
2023-03-01T08:28:34.234Z,10736.00
2023-03-01T08:29:34.400Z,10524.00
2023-03-01T08:30:34.610Z,10736.00
2023-03-01T08:31:34.788Z,11716.00
2023-03-01T08:32:34.952Z,12136.00
2023-03-01T08:33:35.106Z,12672.00
2023-03-01T08:34:35.289Z,12912.00
2023-03-01T08:35:35.570Z,12996.00
2023-03-01T08:36:35.647Z,12988.00
2023-03-01T08:37:35.842Z,13132.00
2023-03-01T08:38:36.022Z,13168.00
2023-03-01T08:39:36.269Z,13180.00
2023-03-01T08:40:36.400Z,13276.00
2023-03-01T08:41:36.553Z,13148.00
2023-03-01T08:42:36.708Z,12972.00
2023-03-01T08:43:36.892Z,13732.00
2023-03-01T08:44:37.086Z,13624.00
2023-03-01T08:45:37.342Z,14120.00
2023-03-01T08:46:37.441Z,14328.00
2023-03-01T08:47:37.600Z,14760.00
2023-03-01T08:48:37.781Z,14764.00
2023-03-01T08:49:38.003Z,15200.00
2023-03-01T08:50:38.164Z,15520.00
2023-03-01T08:51:38.351Z,15776.00
2023-03-01T08:52:38.514Z,16576.00
2023-03-01T08:53:38.684Z,17664.00
2023-03-01T08:54:38.839Z,17184.00
2023-03-01T08:55:39.033Z,17088.00
2023-03-01T08:56:39.224Z,17152.00
2023-03-01T08:57:39.405Z,16960.00
2023-03-01T08:58:39.563Z,17632.00
2023-03-01T08:59:39.722Z,18208.00
2023-03-01T09:00:39.904Z,17920.00
2023-03-01T09:01:40.104Z,20064.00
2023-03-01T09:02:40.288Z,20832.00
2023-03-01T09:03:40.476Z,21216.00
2023-03-01T09:04:40.632Z,20128.00
2023-03-01T09:05:40.823Z,19904.00
2023-03-01T09:06:40.995Z,20992.00
2023-03-01T09:07:41.201Z,21120.00
2023-03-01T09:08:41.346Z,22336.00
2023-03-01T09:09:41.539Z,21440.00
2023-03-01T09:10:41.726Z,23456.00
2023-03-01T09:11:41.895Z,26080.00
2023-03-01T09:12:42.040Z,26272.00
2023-03-01T09:13:44.244Z,25504.00
2023-03-01T09:14:42.389Z,25152.00
2023-03-01T09:15:42.574Z,25856.00
2023-03-01T09:16:42.887Z,24864.00
2023-03-01T09:17:42.961Z,23520.00
2023-03-01T09:18:43.101Z,24448.00
2023-03-01T09:19:43.299Z,28000.00
2023-03-01T09:20:43.467Z,31648.00
2023-03-01T09:21:43.668Z,32800.00
2023-03-01T09:22:43.840Z,32992.00
2023-03-01T09:23:44.027Z,31936.00
2023-03-01T09:24:44.214Z,30560.00
2023-03-01T09:25:44.407Z,30848.00
2023-03-01T09:26:44.568Z,32864.00
2023-03-01T09:27:44.755Z,33696.00
2023-03-01T09:28:44.940Z,36128.00
2023-03-01T09:29:45.128Z,34144.00
2023-03-01T09:30:45.334Z,34688.00
2023-03-01T09:31:45.519Z,34400.00
2023-03-01T09:32:45.667Z,42112.00
2023-03-01T09:33:45.820Z,43424.00
2023-03-01T09:34:46.010Z,40736.00
2023-03-01T09:35:46.204Z,40864.00
2023-03-01T09:36:46.361Z,40128.00
2023-03-01T09:37:46.548Z,40288.00
2023-03-01T09:38:46.692Z,38944.00
2023-03-01T09:39:46.882Z,39488.00
2023-03-01T09:40:47.032Z,39168.00
2023-03-01T09:41:47.237Z,38496.00
2023-03-01T09:42:47.423Z,35392.00
2023-03-01T09:43:48.594Z,32896.00
2023-03-01T09:44:47.782Z,34304.00
2023-03-01T09:45:48.005Z,37312.00
2023-03-01T09:46:48.153Z,40192.00
2023-03-01T09:47:48.332Z,40736.00
2023-03-01T09:48:48.565Z,39008.00
2023-03-01T09:49:48.712Z,40064.00
2023-03-01T09:50:48.870Z,37344.00
2023-03-01T09:51:49.068Z,37120.00
2023-03-01T09:52:49.204Z,38464.00
2023-03-01T09:53:49.405Z,38880.00
2023-03-01T09:54:49.577Z,43168.00
2023-03-01T09:55:49.774Z,47328.00
2023-03-01T09:56:49.936Z,48480.00
2023-03-01T09:57:50.149Z,50528.00
2023-03-01T09:58:50.273Z,48800.00
2023-03-01T09:59:50.465Z,49600.00
2023-03-01T10:00:50.649Z,54048.00
2023-03-01T10:01:50.855Z,56192.00
2023-03-01T10:02:51.007Z,54816.00
2023-03-01T10:03:51.224Z,53600.00
2023-03-01T10:04:51.448Z,54208.00
2023-03-01T10:05:51.566Z,57888.00
2023-03-01T10:06:51.706Z,56960.00
2023-03-01T10:07:52.834Z,53888.00
2023-03-01T10:08:52.048Z,55968.00
2023-03-01T10:09:52.198Z,57760.00
2023-03-01T10:10:52.382Z,54528.00
2023-03-01T10:11:52.586Z,47872.00
2023-03-01T10:12:52.744Z,31296.00
2023-03-01T10:13:52.935Z,15180.00
2023-03-01T10:14:53.108Z,6584.00
2023-03-01T10:15:53.317Z,4004.00
2023-03-01T10:16:53.436Z,3800.00
2023-03-01T10:17:53.621Z,3736.00
2023-03-01T10:18:53.809Z,3724.00
2023-03-01T10:19:53.956Z,3744.00
2023-03-01T10:20:54.161Z,3772.00
2023-03-01T10:21:54.350Z,3792.00
2023-03-01T10:22:54.508Z,3808.00
2023-03-01T10:23:54.706Z,3844.00
2023-03-01T10:24:54.878Z,3860.00
2023-03-01T10:25:55.085Z,3884.00
2023-03-01T10:26:55.243Z,3860.00
2023-03-01T10:27:55.409Z,3824.00
2023-03-01T10:28:55.569Z,3736.00
2023-03-01T10:29:55.757Z,3624.00
2023-03-01T10:30:55.919Z,3572.00
2023-03-01T10:31:56.131Z,3532.00
2023-03-01T10:32:56.278Z,3492.00
2023-03-01T10:33:56.440Z,3440.00
2023-03-01T10:34:56.613Z,3412.00
2023-03-01T10:35:56.807Z,3404.00
2023-03-01T10:36:56.967Z,3400.00
2023-03-01T10:37:57.179Z,3380.00
2023-03-01T10:38:57.379Z,3356.00
2023-03-01T10:39:57.490Z,3340.00
2023-03-01T10:40:57.637Z,3308.00
2023-03-01T10:41:57.826Z,3284.00
2023-03-01T10:42:58.008Z,3252.00
2023-03-01T10:43:58.169Z,3252.00
2023-03-01T10:44:58.359Z,3268.00
2023-03-01T10:45:58.568Z,3268.00
2023-03-01T10:46:58.686Z,3260.00
2023-03-01T10:47:58.868Z,3268.00
2023-03-01T10:48:59.051Z,3272.00
2023-03-01T10:49:59.210Z,3268.00
2023-03-01T10:50:59.391Z,3272.00
2023-03-01T10:51:59.567Z,3268.00
2023-03-01T10:52:59.760Z,3268.00
2023-03-01T10:53:59.888Z,3268.00
2023-03-01T10:55:00.139Z,3268.00
2023-03-01T10:56:00.247Z,3264.00
2023-03-01T10:57:00.467Z,3268.00
2023-03-01T10:58:00.604Z,3260.00
2023-03-01T10:59:00.768Z,3256.00
2023-03-01T11:00:00.934Z,3256.00
2023-03-01T11:01:01.131Z,3252.00
2023-03-01T11:02:02.316Z,3252.00
2023-03-01T11:03:01.505Z,3248.00
2023-03-01T11:04:01.673Z,3248.00
2023-03-01T11:05:01.947Z,3240.00
2023-03-01T11:06:02.017Z,3236.00
2023-03-01T11:07:02.183Z,3228.00
2023-03-01T11:08:02.356Z,3204.00
2023-03-01T11:09:02.517Z,3196.00
2023-03-01T11:10:02.676Z,3180.00
2023-03-01T11:11:02.877Z,3176.00
2023-03-01T11:12:03.057Z,3176.00
2023-03-01T11:13:03.258Z,3184.00
2023-03-01T11:14:06.580Z,3180.00
2023-03-01T11:15:04.591Z,3180.00
2023-03-01T11:16:03.822Z,3168.00
2023-03-01T11:17:04.007Z,3164.00
2023-03-01T11:18:13.779Z,3160.00
2023-03-01T11:19:05.337Z,3164.00
2023-03-01T11:20:04.506Z,3176.00
2023-03-01T11:21:04.688Z,3184.00
2023-03-01T11:22:04.950Z,3192.00
2023-03-01T11:23:05.063Z,3192.00
2023-03-01T11:24:05.247Z,3188.00
2023-03-01T11:25:10.421Z,3180.00
2023-03-01T11:26:06.569Z,3180.00
2023-03-01T11:27:05.779Z,3196.00
2023-03-01T11:28:05.930Z,3216.00
2023-03-01T11:29:06.092Z,3220.00
2023-03-01T11:30:06.293Z,3200.00
2023-03-01T11:31:09.056Z,3196.00
2023-03-01T11:32:06.725Z,3196.00
2023-03-01T11:33:06.899Z,3188.00
2023-03-01T11:34:07.026Z,3296.00
2023-03-01T11:35:07.173Z,3356.00
2023-03-01T11:36:07.393Z,3392.00
2023-03-01T11:37:07.579Z,3352.00
2023-03-01T11:38:07.731Z,3288.00
2023-03-01T11:39:07.888Z,3228.00
2023-03-01T11:40:08.053Z,3128.00
2023-03-01T11:41:08.220Z,3124.00
2023-03-01T11:42:18.259Z,3136.00
2023-03-01T11:43:09.601Z,3148.00
2023-03-01T11:44:08.783Z,3148.00
2023-03-01T11:45:08.919Z,3148.00
2023-03-01T11:46:11.181Z,3136.00
2023-03-01T11:47:09.473Z,3132.00
2023-03-01T11:48:09.474Z,3132.00
2023-03-01T11:49:09.629Z,3144.00
2023-03-01T11:50:09.839Z,3156.00
2023-03-01T11:51:10.024Z,3176.00
2023-03-01T11:52:10.169Z,3196.00
2023-03-01T11:53:10.311Z,3208.00
2023-03-01T11:54:10.501Z,3224.00
2023-03-01T11:55:10.679Z,3232.00
2023-03-01T11:56:10.886Z,3248.00
2023-03-01T11:57:11.049Z,3252.00
2023-03-01T11:58:11.218Z,3252.00
2023-03-01T11:59:11.398Z,3260.00
2023-03-01T12:00:11.577Z,3260.00
2023-03-01T12:01:11.749Z,3268.00
2023-03-01T12:02:12.000Z,3272.00
2023-03-01T12:03:12.104Z,3272.00
2023-03-01T12:04:12.321Z,3260.00
2023-03-01T12:05:12.460Z,3232.00
2023-03-01T12:06:12.624Z,3212.00
2023-03-01T12:07:12.832Z,3192.00
2023-03-01T12:08:12.997Z,3156.00
2023-03-01T12:09:13.159Z,3116.00
2023-03-01T12:10:13.380Z,3068.00
2023-03-01T12:11:13.486Z,3028.00
2023-03-01T12:12:13.695Z,2984.00
2023-03-01T12:13:13.849Z,2900.00
2023-03-01T12:14:14.010Z,2840.00
2023-03-01T12:15:14.169Z,2856.00
2023-03-01T12:16:14.701Z,2828.00
2023-03-01T12:17:14.668Z,2844.00
2023-03-01T12:18:14.711Z,2884.00
2023-03-01T12:19:14.887Z,2860.00
2023-03-01T12:20:15.131Z,2880.00
2023-03-01T12:21:15.265Z,2896.00
2023-03-01T12:22:15.396Z,2920.00
2023-03-01T12:23:20.736Z,2940.00
2023-03-01T12:24:16.723Z,2944.00
2023-03-01T12:25:15.917Z,2948.00
2023-03-01T12:26:16.071Z,2944.00
2023-03-01T12:27:16.281Z,2964.00
2023-03-01T12:28:16.450Z,2972.00
2023-03-01T12:29:16.649Z,2972.00
2023-03-01T12:30:16.806Z,2956.00
2023-03-01T12:31:17.027Z,2968.00
2023-03-01T12:32:17.261Z,2984.00
2023-03-01T12:33:17.338Z,2952.00
2023-03-01T12:34:17.547Z,2956.00
2023-03-01T12:35:17.688Z,2892.00
2023-03-01T12:36:17.869Z,2864.00